sensor_id;sensor_type;location;lat;lon;timestamp;temperature;humidity
4295;DHT22;2161;53.634;10.100;2023-04-03T00:01:07;4.70;99.90
4295;DHT22;2161;53.634;10.100;2023-04-03T00:03:33;4.70;99.90
4295;DHT22;2161;53.634;10.100;2023-04-03T00:05:59;4.70;99.90
4295;DHT22;2161;53.634;10.100;2023-04-03T00:08:24;4.70;99.90
4295;DHT22;2161;53.634;10.100;2023-04-03T00:10:50;4.70;99.90
4295;DHT22;2161;53.634;10.100;2023-04-03T00:13:15;4.70;99.90
4295;DHT22;2161;53.634;10.100;2023-04-03T00:15:41;4.70;99.90
4295;DHT22;2161;53.634;10.100;2023-04-03T00:18:07;4.60;99.90
4295;DHT22;2161;53.634;10.100;2023-04-03T00:20:33;4.50;99.90
4295;DHT22;2161;53.634;10.100;2023-04-03T00:22:59;4.50;99.90
4295;DHT22;2161;53.634;10.100;2023-04-03T00:25:25;4.50;99.90
4295;DHT22;2161;53.634;10.100;2023-04-03T00:27:50;4.60;99.90
4295;DHT22;2161;53.634;10.100;2023-04-03T00:30:18;4.50;99.90
4295;DHT22;2161;53.634;10.100;2023-04-03T00:32:43;4.20;99.90
4295;DHT22;2161;53.634;10.100;2023-04-03T00:35:09;4.30;99.90
4295;DHT22;2161;53.634;10.100;2023-04-03T00:37:35;4.40;99.90
4295;DHT22;2161;53.634;10.100;2023-04-03T00:40:02;4.50;99.90
4295;DHT22;2161;53.634;10.100;2023-04-03T00:42:28;4.40;99.90
4295;DHT22;2161;53.634;10.100;2023-04-03T00:47:22;4.40;99.90
4295;DHT22;2161;53.634;10.100;2023-04-03T00:49:49;4.40;99.90
4295;DHT22;2161;53.634;10.100;2023-04-03T00:52:18;4.20;99.90
4295;DHT22;2161;53.634;10.100;2023-04-03T00:54:46;4.10;99.90
4295;DHT22;2161;53.634;10.100;2023-04-03T00:57:13;4.30;99.90
4295;DHT22;2161;53.634;10.100;2023-04-03T00:59:44;4.40;99.90
4295;DHT22;2161;53.634;10.100;2023-04-03T01:02:11;4.40;99.90
4295;DHT22;2161;53.634;10.100;2023-04-03T01:04:37;4.40;99.90
4295;DHT22;2161;53.634;10.100;2023-04-03T01:07:07;4.40;99.90
4295;DHT22;2161;53.634;10.100;2023-04-03T01:09:33;4.30;99.90
4295;DHT22;2161;53.634;10.100;2023-04-03T01:14:49;3.90;99.90
4295;DHT22;2161;53.634;10.100;2023-04-03T01:17:37;3.90;99.90
4295;DHT22;2161;53.634;10.100;2023-04-03T01:20:30;4.00;99.90
4295;DHT22;2161;53.634;10.100;2023-04-03T01:25:37;4.10;99.90
4295;DHT22;2161;53.634;10.100;2023-04-03T01:28:04;4.10;99.90
4295;DHT22;2161;53.634;10.100;2023-04-03T01:30:38;4.00;99.90
4295;DHT22;2161;53.634;10.100;2023-04-03T01:33:05;4.10;99.90
4295;DHT22;2161;53.634;10.100;2023-04-03T01:35:30;4.00;99.90
4295;DHT22;2161;53.634;10.100;2023-04-03T01:37:56;4.10;99.90
4295;DHT22;2161;53.634;10.100;2023-04-03T01:40:21;4.10;99.90
4295;DHT22;2161;53.634;10.100;2023-04-03T01:42:47;4.20;99.90
4295;DHT22;2161;53.634;10.100;2023-04-03T01:45:12;4.00;99.90
4295;DHT22;2161;53.634;10.100;2023-04-03T01:47:38;3.90;99.90
4295;DHT22;2161;53.634;10.100;2023-04-03T01:50:03;4.00;99.90
4295;DHT22;2161;53.634;10.100;2023-04-03T01:52:29;4.10;99.90
4295;DHT22;2161;53.634;10.100;2023-04-03T01:54:55;4.30;99.90
4295;DHT22;2161;53.634;10.100;2023-04-03T01:57:20;3.70;99.90
4295;DHT22;2161;53.634;10.100;2023-04-03T01:59:46;3.70;99.90
4295;DHT22;2161;53.634;10.100;2023-04-03T02:02:11;3.70;99.90
4295;DHT22;2161;53.634;10.100;2023-04-03T02:04:38;4.00;99.90
4295;DHT22;2161;53.634;10.100;2023-04-03T02:07:03;4.00;99.90
4295;DHT22;2161;53.634;10.100;2023-04-03T02:09:29;4.10;99.90
4295;DHT22;2161;53.634;10.100;2023-04-03T02:11:54;4.10;99.90
4295;DHT22;2161;53.634;10.100;2023-04-03T02:14:20;4.20;99.90
4295;DHT22;2161;53.634;10.100;2023-04-03T02:16:47;4.20;99.90
4295;DHT22;2161;53.634;10.100;2023-04-03T02:19:12;4.30;99.90
4295;DHT22;2161;53.634;10.100;2023-04-03T02:21:38;4.20;99.90
4295;DHT22;2161;53.634;10.100;2023-04-03T02:24:03;4.10;99.90
4295;DHT22;2161;53.634;10.100;2023-04-03T02:26:29;4.20;99.90
4295;DHT22;2161;53.634;10.100;2023-04-03T02:28:54;4.10;99.90
4295;DHT22;2161;53.634;10.100;2023-04-03T02:31:20;3.50;99.90
4295;DHT22;2161;53.634;10.100;2023-04-03T02:33:46;3.90;99.90
4295;DHT22;2161;53.634;10.100;2023-04-03T02:36:11;3.90;99.90
4295;DHT22;2161;53.634;10.100;2023-04-03T02:38:37;3.70;99.90
4295;DHT22;2161;53.634;10.100;2023-04-03T02:41:04;3.80;99.90
4295;DHT22;2161;53.634;10.100;2023-04-03T02:43:29;3.90;99.90
4295;DHT22;2161;53.634;10.100;2023-04-03T02:45:55;3.80;99.90
4295;DHT22;2161;53.634;10.100;2023-04-03T02:48:21;3.90;99.90
4295;DHT22;2161;53.634;10.100;2023-04-03T02:50:47;4.00;99.90
4295;DHT22;2161;53.634;10.100;2023-04-03T02:53:12;4.10;99.90
4295;DHT22;2161;53.634;10.100;2023-04-03T02:55:38;4.10;99.90
4295;DHT22;2161;53.634;10.100;2023-04-03T02:58:03;4.10;99.90
4295;DHT22;2161;53.634;10.100;2023-04-03T03:00:29;4.10;99.90
4295;DHT22;2161;53.634;10.100;2023-04-03T03:02:55;4.00;99.90
4295;DHT22;2161;53.634;10.100;2023-04-03T03:05:20;3.60;99.90
4295;DHT22;2161;53.634;10.100;2023-04-03T03:07:47;3.80;99.90
4295;DHT22;2161;53.634;10.100;2023-04-03T03:10:12;3.80;99.90
4295;DHT22;2161;53.634;10.100;2023-04-03T03:12:38;3.80;99.90
4295;DHT22;2161;53.634;10.100;2023-04-03T03:15:03;3.70;99.90
4295;DHT22;2161;53.634;10.100;2023-04-03T03:17:29;3.80;99.90
4295;DHT22;2161;53.634;10.100;2023-04-03T03:19:55;3.80;99.90
4295;DHT22;2161;53.634;10.100;2023-04-03T03:22:20;3.90;99.90
4295;DHT22;2161;53.634;10.100;2023-04-03T03:24:46;4.00;99.90
4295;DHT22;2161;53.634;10.100;2023-04-03T03:27:11;3.70;99.90
4295;DHT22;2161;53.634;10.100;2023-04-03T03:29:37;3.80;99.90
4295;DHT22;2161;53.634;10.100;2023-04-03T03:32:03;3.70;99.90
4295;DHT22;2161;53.634;10.100;2023-04-03T03:34:28;3.80;99.90
4295;DHT22;2161;53.634;10.100;2023-04-03T03:36:54;3.60;99.90
4295;DHT22;2161;53.634;10.100;2023-04-03T03:39:20;3.70;99.90
4295;DHT22;2161;53.634;10.100;2023-04-03T03:41:46;3.70;99.90
4295;DHT22;2161;53.634;10.100;2023-04-03T03:44:11;3.70;99.90
4295;DHT22;2161;53.634;10.100;2023-04-03T03:46:37;3.80;99.90
4295;DHT22;2161;53.634;10.100;2023-04-03T03:49:02;3.50;99.90
4295;DHT22;2161;53.634;10.100;2023-04-03T03:51:28;3.50;99.90
4295;DHT22;2161;53.634;10.100;2023-04-03T03:53:53;3.70;99.90
4295;DHT22;2161;53.634;10.100;2023-04-03T03:56:20;3.70;99.90
4295;DHT22;2161;53.634;10.100;2023-04-03T03:58:45;3.70;99.90
4295;DHT22;2161;53.634;10.100;2023-04-03T04:01:11;3.70;99.90
4295;DHT22;2161;53.634;10.100;2023-04-03T04:03:36;3.60;99.90
4295;DHT22;2161;53.634;10.100;2023-04-03T04:06:02;3.50;99.90
4295;DHT22;2161;53.634;10.100;2023-04-03T04:08:28;3.60;99.90
4295;DHT22;2161;53.634;10.100;2023-04-03T04:10:53;3.50;99.90
4295;DHT22;2161;53.634;10.100;2023-04-03T04:13:19;3.40;99.90
4295;DHT22;2161;53.634;10.100;2023-04-03T04:15:44;3.50;99.90
4295;DHT22;2161;53.634;10.100;2023-04-03T04:18:10;3.50;99.90
4295;DHT22;2161;53.634;10.100;2023-04-03T04:20:35;3.40;99.90
4295;DHT22;2161;53.634;10.100;2023-04-03T04:23:01;3.30;99.90
4295;DHT22;2161;53.634;10.100;2023-04-03T04:25:26;3.20;99.90
4295;DHT22;2161;53.634;10.100;2023-04-03T04:27:52;3.40;99.90
4295;DHT22;2161;53.634;10.100;2023-04-03T04:30:17;3.50;99.90
4295;DHT22;2161;53.634;10.100;2023-04-03T04:32:43;3.60;99.90
4295;DHT22;2161;53.634;10.100;2023-04-03T04:35:09;3.60;99.90
4295;DHT22;2161;53.634;10.100;2023-04-03T04:37:35;3.60;99.90
4295;DHT22;2161;53.634;10.100;2023-04-03T04:40:00;3.70;99.90
4295;DHT22;2161;53.634;10.100;2023-04-03T04:42:26;3.80;99.90
4295;DHT22;2161;53.634;10.100;2023-04-03T04:44:51;3.70;99.90
4295;DHT22;2161;53.634;10.100;2023-04-03T04:47:17;3.70;99.90
4295;DHT22;2161;53.634;10.100;2023-04-03T04:49:43;3.70;99.90
4295;DHT22;2161;53.634;10.100;2023-04-03T04:52:08;3.60;99.90
4295;DHT22;2161;53.634;10.100;2023-04-03T04:54:34;3.60;99.90
4295;DHT22;2161;53.634;10.100;2023-04-03T04:56:59;3.60;99.90
4295;DHT22;2161;53.634;10.100;2023-04-03T04:59:25;3.60;99.90
4295;DHT22;2161;53.634;10.100;2023-04-03T05:01:50;3.60;99.90
4295;DHT22;2161;53.634;10.100;2023-04-03T05:04:17;3.60;99.90
4295;DHT22;2161;53.634;10.100;2023-04-03T05:06:42;3.50;99.90
4295;DHT22;2161;53.634;10.100;2023-04-03T05:09:08;3.30;99.90
4295;DHT22;2161;53.634;10.100;2023-04-03T05:11:35;3.40;99.90
4295;DHT22;2161;53.634;10.100;2023-04-03T05:14:00;3.50;99.90
4295;DHT22;2161;53.634;10.100;2023-04-03T05:16:26;3.40;99.90
4295;DHT22;2161;53.634;10.100;2023-04-03T05:18:51;3.40;99.90
4295;DHT22;2161;53.634;10.100;2023-04-03T05:21:17;3.40;99.90
4295;DHT22;2161;53.634;10.100;2023-04-03T05:23:43;3.10;99.90
4295;DHT22;2161;53.634;10.100;2023-04-03T05:26:09;3.30;99.90
4295;DHT22;2161;53.634;10.100;2023-04-03T05:28:35;3.30;99.90
4295;DHT22;2161;53.634;10.100;2023-04-03T05:31:00;3.40;99.90
4295;DHT22;2161;53.634;10.100;2023-04-03T05:33:26;3.40;99.90
4295;DHT22;2161;53.634;10.100;2023-04-03T05:35:52;3.50;99.90
4295;DHT22;2161;53.634;10.100;2023-04-03T05:38:18;3.20;99.90
4295;DHT22;2161;53.634;10.100;2023-04-03T05:40:44;3.40;99.90
4295;DHT22;2161;53.634;10.100;2023-04-03T05:43:09;3.30;99.90
4295;DHT22;2161;53.634;10.100;2023-04-03T05:45:35;3.20;99.90
4295;DHT22;2161;53.634;10.100;2023-04-03T05:48:01;3.40;99.90
4295;DHT22;2161;53.634;10.100;2023-04-03T05:50:27;3.20;99.90
4295;DHT22;2161;53.634;10.100;2023-04-03T05:52:56;3.30;99.90
4295;DHT22;2161;53.634;10.100;2023-04-03T05:55:22;3.20;99.90
4295;DHT22;2161;53.634;10.100;2023-04-03T05:57:47;3.50;99.90
4295;DHT22;2161;53.634;10.100;2023-04-03T06:00:14;3.50;99.90
4295;DHT22;2161;53.634;10.100;2023-04-03T06:02:41;3.80;99.90
4295;DHT22;2161;53.634;10.100;2023-04-03T06:05:08;3.80;99.90
4295;DHT22;2161;53.634;10.100;2023-04-03T06:07:33;3.80;99.90
4295;DHT22;2161;53.634;10.100;2023-04-03T06:09:59;3.90;99.90
4295;DHT22;2161;53.634;10.100;2023-04-03T06:12:25;4.00;99.90
4295;DHT22;2161;53.634;10.100;2023-04-03T06:14:50;4.00;99.90
4295;DHT22;2161;53.634;10.100;2023-04-03T06:17:16;3.90;99.90
4295;DHT22;2161;53.634;10.100;2023-04-03T06:19:43;4.00;99.90
4295;DHT22;2161;53.634;10.100;2023-04-03T06:22:09;3.90;99.90
4295;DHT22;2161;53.634;10.100;2023-04-03T06:24:34;4.10;99.90
4295;DHT22;2161;53.634;10.100;2023-04-03T06:27:00;4.10;99.90
4295;DHT22;2161;53.634;10.100;2023-04-03T06:29:26;4.20;99.90
4295;DHT22;2161;53.634;10.100;2023-04-03T06:31:52;3.90;99.90
4295;DHT22;2161;53.634;10.100;2023-04-03T06:34:17;3.90;99.90
4295;DHT22;2161;53.634;10.100;2023-04-03T06:36:44;3.90;99.90
4295;DHT22;2161;53.634;10.100;2023-04-03T06:39:18;4.10;99.90
4295;DHT22;2161;53.634;10.100;2023-04-03T06:41:48;4.10;99.90
4295;DHT22;2161;53.634;10.100;2023-04-03T06:44:13;4.20;99.90
4295;DHT22;2161;53.634;10.100;2023-04-03T06:46:42;4.30;99.90
4295;DHT22;2161;53.634;10.100;2023-04-03T06:49:08;4.30;99.90
4295;DHT22;2161;53.634;10.100;2023-04-03T06:51:34;4.30;99.90
4295;DHT22;2161;53.634;10.100;2023-04-03T06:54:01;4.20;99.90
4295;DHT22;2161;53.634;10.100;2023-04-03T06:56:27;4.30;99.90
4295;DHT22;2161;53.634;10.100;2023-04-03T06:58:54;4.40;99.90
4295;DHT22;2161;53.634;10.100;2023-04-03T07:01:20;4.70;99.90
4295;DHT22;2161;53.634;10.100;2023-04-03T07:03:47;4.50;99.90
4295;DHT22;2161;53.634;10.100;2023-04-03T07:06:15;4.60;99.90
4295;DHT22;2161;53.634;10.100;2023-04-03T07:08:41;4.40;99.90
4295;DHT22;2161;53.634;10.100;2023-04-03T07:11:08;4.60;99.90
4295;DHT22;2161;53.634;10.100;2023-04-03T07:13:34;4.80;99.90
4295;DHT22;2161;53.634;10.100;2023-04-03T07:16:00;4.70;99.90
4295;DHT22;2161;53.634;10.100;2023-04-03T07:18:26;4.80;99.90
4295;DHT22;2161;53.634;10.100;2023-04-03T07:20:52;4.90;99.90
4295;DHT22;2161;53.634;10.100;2023-04-03T07:23:18;4.90;99.90
4295;DHT22;2161;53.634;10.100;2023-04-03T07:25:45;4.80;99.90
4295;DHT22;2161;53.634;10.100;2023-04-03T07:28:12;4.90;99.90
4295;DHT22;2161;53.634;10.100;2023-04-03T07:30:45;5.20;99.90
4295;DHT22;2161;53.634;10.100;2023-04-03T07:33:12;5.00;99.90
4295;DHT22;2161;53.634;10.100;2023-04-03T07:35:39;5.10;99.90
4295;DHT22;2161;53.634;10.100;2023-04-03T07:38:05;5.20;99.90
4295;DHT22;2161;53.634;10.100;2023-04-03T07:40:31;5.40;99.90
4295;DHT22;2161;53.634;10.100;2023-04-03T07:42:57;5.30;99.90
4295;DHT22;2161;53.634;10.100;2023-04-03T07:45:23;5.30;99.90
4295;DHT22;2161;53.634;10.100;2023-04-03T07:47:49;5.40;99.90
4295;DHT22;2161;53.634;10.100;2023-04-03T07:50:15;5.50;99.90
4295;DHT22;2161;53.634;10.100;2023-04-03T07:52:41;5.50;99.90
4295;DHT22;2161;53.634;10.100;2023-04-03T07:55:07;5.60;99.90
4295;DHT22;2161;53.634;10.100;2023-04-03T07:57:32;5.60;99.90
4295;DHT22;2161;53.634;10.100;2023-04-03T07:59:58;5.60;99.90
4295;DHT22;2161;53.634;10.100;2023-04-03T08:02:23;5.60;99.90
4295;DHT22;2161;53.634;10.100;2023-04-03T08:04:49;5.50;99.90
4295;DHT22;2161;53.634;10.100;2023-04-03T08:07:14;5.50;99.90
4295;DHT22;2161;53.634;10.100;2023-04-03T08:09:40;5.60;99.90
4295;DHT22;2161;53.634;10.100;2023-04-03T08:12:06;5.60;99.90
4295;DHT22;2161;53.634;10.100;2023-04-03T08:14:32;5.50;99.90
4295;DHT22;2161;53.634;10.100;2023-04-03T08:17:00;5.60;99.90
4295;DHT22;2161;53.634;10.100;2023-04-03T08:19:26;5.80;99.90
4295;DHT22;2161;53.634;10.100;2023-04-03T08:21:52;5.80;99.90
4295;DHT22;2161;53.634;10.100;2023-04-03T08:24:18;6.00;99.90
4295;DHT22;2161;53.634;10.100;2023-04-03T08:26:43;5.80;99.90
4295;DHT22;2161;53.634;10.100;2023-04-03T08:29:08;6.00;99.90
4295;DHT22;2161;53.634;10.100;2023-04-03T08:31:34;6.00;99.90
4295;DHT22;2161;53.634;10.100;2023-04-03T08:34:00;6.10;99.90
4295;DHT22;2161;53.634;10.100;2023-04-03T08:36:27;6.30;99.90
4295;DHT22;2161;53.634;10.100;2023-04-03T08:38:54;6.20;99.90
4295;DHT22;2161;53.634;10.100;2023-04-03T08:41:41;6.10;99.90
4295;DHT22;2161;53.634;10.100;2023-04-03T08:52:17;6.50;99.90
4295;DHT22;2161;53.634;10.100;2023-04-03T08:54:56;6.70;99.90
4295;DHT22;2161;53.634;10.100;2023-04-03T08:57:43;6.70;99.90
4295;DHT22;2161;53.634;10.100;2023-04-03T09:00:20;6.70;99.90
4295;DHT22;2161;53.634;10.100;2023-04-03T09:02:50;6.80;99.90
4295;DHT22;2161;53.634;10.100;2023-04-03T09:05:17;6.70;99.90
4295;DHT22;2161;53.634;10.100;2023-04-03T09:07:46;6.40;99.90
4295;DHT22;2161;53.634;10.100;2023-04-03T09:10:14;6.50;99.90
4295;DHT22;2161;53.634;10.100;2023-04-03T09:12:48;6.80;99.90
4295;DHT22;2161;53.634;10.100;2023-04-03T09:15:23;6.90;99.90
4295;DHT22;2161;53.634;10.100;2023-04-03T09:23:19;7.10;99.90
4295;DHT22;2161;53.634;10.100;2023-04-03T09:25:46;7.10;99.90
4295;DHT22;2161;53.634;10.100;2023-04-03T09:28:13;7.10;99.90
4295;DHT22;2161;53.634;10.100;2023-04-03T09:30:38;7.40;99.90
4295;DHT22;2161;53.634;10.100;2023-04-03T09:33:04;7.20;99.90
4295;DHT22;2161;53.634;10.100;2023-04-03T09:35:36;7.60;99.90
4295;DHT22;2161;53.634;10.100;2023-04-03T09:38:19;7.70;99.90
4295;DHT22;2161;53.634;10.100;2023-04-03T09:43:27;8.20;99.90
4295;DHT22;2161;53.634;10.100;2023-04-03T09:45:54;8.80;99.90
4295;DHT22;2161;53.634;10.100;2023-04-03T09:48:23;9.00;99.90
4295;DHT22;2161;53.634;10.100;2023-04-03T09:50:56;9.40;99.90
4295;DHT22;2161;53.634;10.100;2023-04-03T09:55:59;10.00;99.90
4295;DHT22;2161;53.634;10.100;2023-04-03T09:58:31;10.20;99.90
4295;DHT22;2161;53.634;10.100;2023-04-03T10:01:00;10.30;99.90
4295;DHT22;2161;53.634;10.100;2023-04-03T10:05:54;9.50;99.90
4295;DHT22;2161;53.634;10.100;2023-04-03T10:08:34;9.60;99.90
4295;DHT22;2161;53.634;10.100;2023-04-03T10:13:58;10.10;99.90
4295;DHT22;2161;53.634;10.100;2023-04-03T10:16:29;10.10;99.90
4295;DHT22;2161;53.634;10.100;2023-04-03T10:19:51;10.10;99.90
4295;DHT22;2161;53.634;10.100;2023-04-03T10:22:18;10.30;99.90
4295;DHT22;2161;53.634;10.100;2023-04-03T10:24:54;10.10;99.90
4295;DHT22;2161;53.634;10.100;2023-04-03T10:27:59;9.90;99.90
4295;DHT22;2161;53.634;10.100;2023-04-03T10:30:56;9.90;99.90
4295;DHT22;2161;53.634;10.100;2023-04-03T10:33:36;9.90;99.90
4295;DHT22;2161;53.634;10.100;2023-04-03T10:39:15;9.40;99.90
4295;DHT22;2161;53.634;10.100;2023-04-03T10:47:27;10.40;99.90
4295;DHT22;2161;53.634;10.100;2023-04-03T10:55:02;10.30;99.90
4295;DHT22;2161;53.634;10.100;2023-04-03T10:57:30;10.30;99.90
4295;DHT22;2161;53.634;10.100;2023-04-03T10:59:59;10.00;99.90
4295;DHT22;2161;53.634;10.100;2023-04-03T11:05:37;9.40;99.90
4295;DHT22;2161;53.634;10.100;2023-04-03T11:08:29;9.20;99.90
4295;DHT22;2161;53.634;10.100;2023-04-03T11:11:06;9.40;99.90
4295;DHT22;2161;53.634;10.100;2023-04-03T11:13:38;9.40;99.90
4295;DHT22;2161;53.634;10.100;2023-04-03T11:16:05;9.40;99.90
4295;DHT22;2161;53.634;10.100;2023-04-03T11:18:37;9.30;99.90
4295;DHT22;2161;53.634;10.100;2023-04-03T11:21:19;9.10;99.90
4295;DHT22;2161;53.634;10.100;2023-04-03T11:23:47;9.10;99.90
4295;DHT22;2161;53.634;10.100;2023-04-03T11:26:15;9.20;99.90
4295;DHT22;2161;53.634;10.100;2023-04-03T11:28:41;9.50;99.90
4295;DHT22;2161;53.634;10.100;2023-04-03T11:38:46;9.30;99.90
4295;DHT22;2161;53.634;10.100;2023-04-03T11:41:13;9.20;99.90
4295;DHT22;2161;53.634;10.100;2023-04-03T11:44:13;9.20;99.90
4295;DHT22;2161;53.634;10.100;2023-04-03T11:46:56;9.80;99.90
4295;DHT22;2161;53.634;10.100;2023-04-03T11:51:50;10.40;99.90
4295;DHT22;2161;53.634;10.100;2023-04-03T11:54:35;10.50;99.90
4295;DHT22;2161;53.634;10.100;2023-04-03T12:05:51;11.50;99.90
4295;DHT22;2161;53.634;10.100;2023-04-03T12:08:27;11.50;99.90
4295;DHT22;2161;53.634;10.100;2023-04-03T12:14:04;11.60;99.90
4295;DHT22;2161;53.634;10.100;2023-04-03T12:38:51;9.90;99.90
4295;DHT22;2161;53.634;10.100;2023-04-03T12:41:37;10.20;99.90
4295;DHT22;2161;53.634;10.100;2023-04-03T12:46:52;11.20;99.90
4295;DHT22;2161;53.634;10.100;2023-04-03T12:49:41;11.50;99.90
4295;DHT22;2161;53.634;10.100;2023-04-03T12:54:54;11.90;99.90
4295;DHT22;2161;53.634;10.100;2023-04-03T12:57:23;11.30;99.90
4295;DHT22;2161;53.634;10.100;2023-04-03T12:59:50;10.90;99.90
4295;DHT22;2161;53.634;10.100;2023-04-03T13:02:24;11.00;99.90
4295;DHT22;2161;53.634;10.100;2023-04-03T13:04:51;11.30;99.90
4295;DHT22;2161;53.634;10.100;2023-04-03T13:07:24;11.70;99.90
4295;DHT22;2161;53.634;10.100;2023-04-03T13:09:56;11.90;99.90
4295;DHT22;2161;53.634;10.100;2023-04-03T13:12:22;12.10;99.90
4295;DHT22;2161;53.634;10.100;2023-04-03T13:14:53;12.20;99.90
4295;DHT22;2161;53.634;10.100;2023-04-03T13:17:19;12.20;99.90
4295;DHT22;2161;53.634;10.100;2023-04-03T13:19:46;12.30;99.90
4295;DHT22;2161;53.634;10.100;2023-04-03T13:22:33;12.10;99.90
4295;DHT22;2161;53.634;10.100;2023-04-03T13:25:06;12.30;99.90
4295;DHT22;2161;53.634;10.100;2023-04-03T13:27:32;12.30;99.90
4295;DHT22;2161;53.634;10.100;2023-04-03T13:29:59;12.40;99.90
4295;DHT22;2161;53.634;10.100;2023-04-03T13:32:27;12.20;99.90
4295;DHT22;2161;53.634;10.100;2023-04-03T13:34:53;11.80;99.90
4295;DHT22;2161;53.634;10.100;2023-04-03T13:39:45;11.60;99.90
4295;DHT22;2161;53.634;10.100;2023-04-03T13:42:30;11.80;99.90
4295;DHT22;2161;53.634;10.100;2023-04-03T13:45:24;11.70;99.90
4295;DHT22;2161;53.634;10.100;2023-04-03T13:48:07;11.80;99.90
4295;DHT22;2161;53.634;10.100;2023-04-03T13:50:51;12.00;99.90
4295;DHT22;2161;53.634;10.100;2023-04-03T13:53:18;11.50;99.90
4295;DHT22;2161;53.634;10.100;2023-04-03T13:58:29;11.90;99.90
4295;DHT22;2161;53.634;10.100;2023-04-03T14:01:17;11.80;99.90
4295;DHT22;2161;53.634;10.100;2023-04-03T14:06:17;11.60;99.90
4295;DHT22;2161;53.634;10.100;2023-04-03T14:08:44;11.50;99.90
4295;DHT22;2161;53.634;10.100;2023-04-03T14:11:20;11.50;99.90
4295;DHT22;2161;53.634;10.100;2023-04-03T14:13:47;11.70;99.90
4295;DHT22;2161;53.634;10.100;2023-04-03T14:16:22;11.70;99.90
4295;DHT22;2161;53.634;10.100;2023-04-03T14:18:49;11.70;99.90
4295;DHT22;2161;53.634;10.100;2023-04-03T14:21:18;11.50;99.90
4295;DHT22;2161;53.634;10.100;2023-04-03T14:23:44;11.40;99.90
4295;DHT22;2161;53.634;10.100;2023-04-03T14:26:28;11.60;99.90
4295;DHT22;2161;53.634;10.100;2023-04-03T14:28:55;11.30;99.90
4295;DHT22;2161;53.634;10.100;2023-04-03T14:31:21;11.30;99.90
4295;DHT22;2161;53.634;10.100;2023-04-03T14:33:48;11.20;99.90
4295;DHT22;2161;53.634;10.100;2023-04-03T14:36:15;11.10;99.90
4295;DHT22;2161;53.634;10.100;2023-04-03T14:38:43;11.10;99.90
4295;DHT22;2161;53.634;10.100;2023-04-03T14:41:11;11.20;99.90
4295;DHT22;2161;53.634;10.100;2023-04-03T14:43:37;11.10;99.90
4295;DHT22;2161;53.634;10.100;2023-04-03T14:46:04;11.10;99.90
4295;DHT22;2161;53.634;10.100;2023-04-03T14:48:29;10.80;99.90
4295;DHT22;2161;53.634;10.100;2023-04-03T14:50:55;10.60;99.90
4295;DHT22;2161;53.634;10.100;2023-04-03T14:53:21;10.80;99.90
4295;DHT22;2161;53.634;10.100;2023-04-03T14:55:51;10.80;99.90
4295;DHT22;2161;53.634;10.100;2023-04-03T14:58:19;10.70;99.90
4295;DHT22;2161;53.634;10.100;2023-04-03T15:00:45;10.50;99.90
4295;DHT22;2161;53.634;10.100;2023-04-03T15:03:16;10.50;99.90
4295;DHT22;2161;53.634;10.100;2023-04-03T15:05:44;10.30;99.90
4295;DHT22;2161;53.634;10.100;2023-04-03T15:08:26;10.30;99.90
4295;DHT22;2161;53.634;10.100;2023-04-03T15:10:54;10.50;99.90
4295;DHT22;2161;53.634;10.100;2023-04-03T15:13:20;10.20;99.90
4295;DHT22;2161;53.634;10.100;2023-04-03T15:15:47;10.00;99.90
4295;DHT22;2161;53.634;10.100;2023-04-03T15:18:17;10.10;99.90
4295;DHT22;2161;53.634;10.100;2023-04-03T15:20:43;9.80;99.90
4295;DHT22;2161;53.634;10.100;2023-04-03T15:23:11;9.70;99.90
4295;DHT22;2161;53.634;10.100;2023-04-03T15:25:37;9.50;99.90
4295;DHT22;2161;53.634;10.100;2023-04-03T15:28:03;9.70;99.90
4295;DHT22;2161;53.634;10.100;2023-04-03T15:30:28;9.80;99.90
4295;DHT22;2161;53.634;10.100;2023-04-03T15:32:54;9.80;99.90
4295;DHT22;2161;53.634;10.100;2023-04-03T15:35:20;9.90;99.90
4295;DHT22;2161;53.634;10.100;2023-04-03T15:37:46;10.10;99.90
4295;DHT22;2161;53.634;10.100;2023-04-03T15:40:13;10.10;99.90
4295;DHT22;2161;53.634;10.100;2023-04-03T15:42:39;10.00;99.90
4295;DHT22;2161;53.634;10.100;2023-04-03T15:45:06;9.80;99.90
4295;DHT22;2161;53.634;10.100;2023-04-03T15:47:31;9.40;99.90
4295;DHT22;2161;53.634;10.100;2023-04-03T15:49:57;9.40;99.90
4295;DHT22;2161;53.634;10.100;2023-04-03T15:52:23;9.40;99.90
4295;DHT22;2161;53.634;10.100;2023-04-03T15:54:48;9.30;99.90
4295;DHT22;2161;53.634;10.100;2023-04-03T15:57:14;9.40;99.90
4295;DHT22;2161;53.634;10.100;2023-04-03T15:59:40;9.20;99.90
4295;DHT22;2161;53.634;10.100;2023-04-03T16:02:06;9.10;99.90
4295;DHT22;2161;53.634;10.100;2023-04-03T16:04:34;9.20;99.90
4295;DHT22;2161;53.634;10.100;2023-04-03T16:07:04;9.30;99.90
4295;DHT22;2161;53.634;10.100;2023-04-03T16:09:30;9.30;99.90
4295;DHT22;2161;53.634;10.100;2023-04-03T16:11:56;9.40;99.90
4295;DHT22;2161;53.634;10.100;2023-04-03T16:14:22;9.20;99.90
4295;DHT22;2161;53.634;10.100;2023-04-03T16:16:47;9.30;99.90
4295;DHT22;2161;53.634;10.100;2023-04-03T16:19:13;9.10;99.90
4295;DHT22;2161;53.634;10.100;2023-04-03T16:21:39;9.20;99.90
4295;DHT22;2161;53.634;10.100;2023-04-03T16:24:04;9.30;99.90
4295;DHT22;2161;53.634;10.100;2023-04-03T16:26:30;9.20;99.90
4295;DHT22;2161;53.634;10.100;2023-04-03T16:28:56;9.10;99.90
4295;DHT22;2161;53.634;10.100;2023-04-03T16:31:22;8.90;99.90
4295;DHT22;2161;53.634;10.100;2023-04-03T16:33:49;8.90;99.90
4295;DHT22;2161;53.634;10.100;2023-04-03T16:36:14;8.80;99.90
4295;DHT22;2161;53.634;10.100;2023-04-03T16:38:40;8.90;99.90
4295;DHT22;2161;53.634;10.100;2023-04-03T16:41:05;8.80;99.90
4295;DHT22;2161;53.634;10.100;2023-04-03T16:43:32;8.80;99.90
4295;DHT22;2161;53.634;10.100;2023-04-03T16:45:58;8.60;99.90
4295;DHT22;2161;53.634;10.100;2023-04-03T16:48:24;8.50;99.90
4295;DHT22;2161;53.634;10.100;2023-04-03T16:50:49;8.50;99.90
4295;DHT22;2161;53.634;10.100;2023-04-03T16:53:22;8.50;99.90
4295;DHT22;2161;53.634;10.100;2023-04-03T16:55:48;8.60;99.90
4295;DHT22;2161;53.634;10.100;2023-04-03T16:58:14;8.70;99.90
4295;DHT22;2161;53.634;10.100;2023-04-03T17:00:40;8.40;99.90
4295;DHT22;2161;53.634;10.100;2023-04-03T17:03:06;8.40;99.90
4295;DHT22;2161;53.634;10.100;2023-04-03T17:05:32;8.40;99.90
4295;DHT22;2161;53.634;10.100;2023-04-03T17:07:57;8.40;99.90
4295;DHT22;2161;53.634;10.100;2023-04-03T17:10:23;8.30;99.90
4295;DHT22;2161;53.634;10.100;2023-04-03T17:12:49;8.40;99.90
4295;DHT22;2161;53.634;10.100;2023-04-03T17:15:15;8.60;99.90
4295;DHT22;2161;53.634;10.100;2023-04-03T17:17:40;8.50;99.90
4295;DHT22;2161;53.634;10.100;2023-04-03T17:20:06;8.30;99.90
4295;DHT22;2161;53.634;10.100;2023-04-03T17:22:32;7.80;99.90
4295;DHT22;2161;53.634;10.100;2023-04-03T17:24:58;8.10;99.90
4295;DHT22;2161;53.634;10.100;2023-04-03T17:27:24;8.20;99.90
4295;DHT22;2161;53.634;10.100;2023-04-03T17:29:49;8.00;99.90
4295;DHT22;2161;53.634;10.100;2023-04-03T17:32:15;8.00;99.90
4295;DHT22;2161;53.634;10.100;2023-04-03T17:34:41;8.00;99.90
4295;DHT22;2161;53.634;10.100;2023-04-03T17:37:07;8.10;99.90
4295;DHT22;2161;53.634;10.100;2023-04-03T17:39:33;8.10;99.90
4295;DHT22;2161;53.634;10.100;2023-04-03T17:41:58;8.00;99.90
4295;DHT22;2161;53.634;10.100;2023-04-03T17:44:25;7.60;99.90
4295;DHT22;2161;53.634;10.100;2023-04-03T17:46:51;7.90;99.90
4295;DHT22;2161;53.634;10.100;2023-04-03T17:49:16;8.10;99.90
4295;DHT22;2161;53.634;10.100;2023-04-03T17:51:43;8.00;99.90